Time;durP1;ratioP1;P1;durP2;ratioP2;P2;SDS_P1;SDS_P2;PMS_P1;PMS_P2;Temp;Humidity;BMP_temperature;BMP_pressure;BME280_temperature;BME280_humidity;BME280_pressure;Samples;Min_cycle;Max_cycle;Signal;HPM_P1;HPM_P2
2021/10/09 00:02:09;;;;;;;2.25;1.05;;;;;;;12.69;71.31;100105.88;5090792;28;20036;-76
2021/10/09 00:04:34;;;;;;;1.13;0.90;;;;;;;12.69;71.73;100114.66;5090741;28;20020;-76
2021/10/09 00:07:00;;;;;;;0.68;0.60;;;;;;;12.69;71.39;100106.72;5090950;28;20058;-76
2021/10/09 00:09:27;;;;;;;0.82;0.77;;;;;;;12.69;71.31;100117.31;5090939;28;20035;-77
2021/10/09 00:11:52;;;;;;;0.80;0.60;;;;;;;12.71;71.77;100110.00;5090908;28;20031;-76
2021/10/09 00:14:18;;;;;;;0.60;0.60;;;;;;;12.60;71.45;100101.63;5090839;28;20491;-77
2021/10/09 00:16:44;;;;;;;0.82;0.82;;;;;;;12.46;71.35;100076.72;5090612;28;20024;-77
2021/10/09 00:19:11;;;;;;;0.88;0.80;;;;;;;12.62;71.16;100108.38;5090687;28;20496;-77
2021/10/09 00:21:43;;;;;;;0.80;0.70;;;;;;;12.60;71.91;100113.03;5090822;28;20443;-76
2021/10/09 00:24:16;;;;;;;1.58;1.13;;;;;;;12.14;71.34;100045.19;5093595;28;20570;-76
2021/10/09 00:26:41;;;;;;;1.23;0.93;;;;;;;12.60;71.65;100123.63;5094237;28;20028;-76
2021/10/09 00:29:08;;;;;;;1.20;1.10;;;;;;;12.54;71.74;100092.56;5094365;28;20039;-77
2021/10/09 00:31:33;;;;;;;1.73;0.93;;;;;;;12.66;71.11;100111.53;5094224;28;20012;-76
2021/10/09 00:33:59;;;;;;;1.23;0.82;;;;;;;11.43;71.81;99904.22;5094062;28;20051;-77
2021/10/09 00:36:25;;;;;;;1.05;0.90;;;;;;;12.48;71.37;100072.06;5093947;28;20028;-75
2021/10/09 00:38:50;;;;;;;2.83;0.98;;;;;;;12.59;71.55;100098.16;5094196;28;20027;-77
2021/10/09 00:41:16;;;;;;;2.05;1.25;;;;;;;12.65;71.21;100105.41;5093979;28;20086;-77
2021/10/09 00:43:41;;;;;;;1.13;0.70;;;;;;;12.64;71.54;100101.13;5094333;28;20062;-77
2021/10/09 00:46:07;;;;;;;1.25;0.77;;;;;;;12.65;71.39;100099.28;5093816;28;20035;-77
2021/10/09 00:48:34;;;;;;;1.30;0.70;;;;;;;12.64;71.71;100102.94;5093993;28;20058;-76
2021/10/09 00:50:59;;;;;;;0.85;0.70;;;;;;;11.90;71.67;99980.84;5094000;28;20103;-76
2021/10/09 00:53:26;;;;;;;0.68;0.52;;;;;;;12.60;71.38;100080.44;5093954;28;20102;-77
2021/10/09 00:55:54;;;;;;;0.70;0.70;;;;;;;12.49;71.66;100063.13;5092348;28;20054;-77
2021/10/09 00:58:21;;;;;;;0.50;0.50;;;;;;;12.62;71.92;100078.44;5093459;28;20051;-77
2021/10/09 01:00:48;;;;;;;0.85;0.60;;;;;;;12.63;71.72;100086.22;5093424;28;20048;-76
2021/10/09 01:03:13;;;;;;;0.70;0.70;;;;;;;12.64;71.77;100087.03;5093573;28;20477;-77
2021/10/09 01:05:39;;;;;;;1.48;1.02;;;;;;;12.60;72.03;100077.78;5092316;28;20039;-76
2021/10/09 01:08:05;;;;;;;1.45;1.05;;;;;;;12.53;71.63;100082.97;5093691;28;20032;-76
2021/10/09 01:10:30;;;;;;;2.10;1.27;;;;;;;11.67;71.92;99945.56;5093556;28;20085;-77
2021/10/09 01:12:58;;;;;;;1.25;1.15;;;;;;;12.56;71.99;100079.13;5093475;28;20023;-76
2021/10/09 01:15:29;;;;;;;1.25;0.90;;;;;;;12.42;71.42;100064.84;5093525;28;20485;-76
2021/10/09 01:17:56;;;;;;;0.90;0.90;;;;;;;12.62;71.56;100112.88;5093308;28;20095;-76
2021/10/09 01:20:22;;;;;;;1.05;0.70;;;;;;;12.57;71.61;100083.44;5093209;28;20508;-76
2021/10/09 01:22:47;;;;;;;0.73;0.70;;;;;;;12.57;71.22;100083.44;5093129;28;20028;-76
2021/10/09 01:25:14;;;;;;;1.27;0.90;;;;;;;12.57;71.47;100084.25;5093198;28;20054;-81
2021/10/09 01:27:40;;;;;;;0.93;0.73;;;;;;;12.59;71.46;100081.44;5093111;28;20504;-80
2021/10/09 01:30:08;;;;;;;2.53;0.80;;;;;;;12.60;71.31;100093.66;5093178;28;20055;-81
2021/10/09 01:32:34;;;;;;;0.90;0.90;;;;;;;12.63;71.66;100080.06;5091949;28;20081;-81
2021/10/09 01:35:06;;;;;;;1.25;1.05;;;;;;;12.55;71.18;100075.66;5091707;28;20055;-81
2021/10/09 01:37:40;;;;;;;0.88;0.85;;;;;;;12.56;71.33;100074.66;5092991;28;20085;-82
2021/10/09 01:40:06;;;;;;;0.80;0.80;;;;;;;12.33;70.94;100040.25;5092948;28;20518;-81
2021/10/09 01:42:31;;;;;;;0.90;0.90;;;;;;;12.62;71.70;100092.50;5093048;28;20024;-80
2021/10/09 01:44:57;;;;;;;0.80;0.80;;;;;;;12.46;71.37;100074.06;5092864;28;20093;-81
2021/10/09 01:47:22;;;;;;;0.90;0.90;;;;;;;12.46;71.43;100083.84;5092826;28;20027;-81
2021/10/09 01:49:47;;;;;;;2.03;0.90;;;;;;;12.52;71.79;100077.84;5092773;28;20484;-81
2021/10/09 01:52:13;;;;;;;0.80;0.80;;;;;;;12.52;71.32;100083.13;5092586;28;20035;-81
2021/10/09 01:54:38;;;;;;;0.77;0.77;;;;;;;11.43;71.70;99926.19;5092574;28;20440;-81
2021/10/09 01:57:04;;;;;;;0.77;0.77;;;;;;;12.29;71.78;100068.09;5092564;28;20101;-81
2021/10/09 01:59:29;;;;;;;1.02;0.93;;;;;;;12.32;72.04;100073.03;5092729;28;20606;-81
2021/10/09 02:01:55;;;;;;;0.70;0.70;;;;;;;12.33;71.96;100066.72;5092683;28;20404;-81
2021/10/09 02:04:24;;;;;;;1.10;1.00;;;;;;;12.19;71.85;100056.91;5092543;28;20024;-81
2021/10/09 02:06:49;;;;;;;1.63;0.77;;;;;;;12.33;71.56;100073.84;5091184;28;20024;-82
2021/10/09 02:09:17;;;;;;;1.10;0.80;;;;;;;12.40;71.98;100077.44;5092484;28;20046;-81
2021/10/09 02:11:45;;;;;;;1.08;0.88;;;;;;;12.51;71.60;100084.13;5092275;28;20113;-81
2021/10/09 02:26:52;;;;;;;3.30;2.38;;;;;;;12.37;71.33;100075.13;5092395;28;20450;-76
2021/10/09 02:29:18;;;;;;;1.40;1.20;;;;;;;12.48;72.07;100098.56;5092318;28;20047;-76
2021/10/09 02:31:44;;;;;;;1.45;0.90;;;;;;;11.82;71.82;99998.56;5092140;28;20476;-76
2021/10/09 02:34:10;;;;;;;1.50;1.08;;;;;;;12.43;71.95;100100.91;5091895;28;20048;-76
2021/10/09 02:36:35;;;;;;;0.93;0.80;;;;;;;12.44;71.14;100097.28;5091967;28;20030;-76
2021/10/09 02:39:01;;;;;;;1.00;0.90;;;;;;;12.09;71.67;100046.53;5092004;28;20028;-76
2021/10/09 02:41:26;;;;;;;1.00;0.80;;;;;;;11.74;71.81;99981.72;5091791;28;20060;-76
2021/10/09 02:43:52;;;;;;;1.27;1.17;;;;;;;12.18;71.66;100060.53;5092129;28;20035;-76
2021/10/09 02:46:17;;;;;;;1.80;1.20;;;;;;;12.44;71.44;100096.44;5091379;28;20035;-76
2021/10/09 02:48:43;;;;;;;1.00;0.90;;;;;;;11.98;71.76;100022.31;5090352;28;20069;-76
2021/10/09 02:51:08;;;;;;;0.98;0.80;;;;;;;12.25;71.83;100080.03;5091493;28;20056;-76
2021/10/09 02:53:33;;;;;;;0.80;0.70;;;;;;;12.36;71.72;100103.44;5091712;28;20501;-76
2021/10/09 02:55:59;;;;;;;2.15;1.25;;;;;;;12.34;71.88;100105.44;5091682;28;20061;-73
2021/10/09 02:58:24;;;;;;;1.40;0.60;;;;;;;12.25;71.66;100114.44;5091709;28;20089;-76
2021/10/09 03:00:50;;;;;;;1.45;0.73;;;;;;;12.25;71.76;100100.38;5091543;28;20028;-76
2021/10/09 03:03:15;;;;;;;0.47;0.47;;;;;;;12.21;71.85;100097.25;5090256;28;20028;-76
2021/10/09 03:05:41;;;;;;;0.50;0.50;;;;;;;11.98;71.42;100065.47;5091615;28;20024;-76
2021/10/09 03:08:06;;;;;;;0.63;0.60;;;;;;;11.74;71.27;100031.16;5091260;28;20028;-76
2021/10/09 03:10:32;;;;;;;0.60;0.60;;;;;;;12.04;71.47;100085.13;5091202;28;20439;-76
2021/10/09 03:12:58;;;;;;;0.82;0.60;;;;;;;12.15;71.35;100126.25;5091277;28;20451;-76
2021/10/09 03:15:24;;;;;;;1.08;0.50;;;;;;;12.14;71.17;100095.47;5091329;28;20032;-76
2021/10/09 03:17:49;;;;;;;0.70;0.60;;;;;;;12.16;71.77;100114.66;5091310;28;20027;-76
2021/10/09 03:20:15;;;;;;;0.63;0.63;;;;;;;12.01;71.20;100073.06;5091109;28;20082;-76
2021/10/09 03:22:41;;;;;;;0.90;0.60;;;;;;;12.12;70.93;100086.88;5091269;28;20035;-76
2021/10/09 03:25:07;;;;;;;1.08;0.70;;;;;;;12.03;71.98;100072.88;5091418;28;20421;-76
2021/10/09 03:27:33;;;;;;;1.38;1.10;;;;;;;12.19;71.47;100091.31;5091267;28;20404;-76
2021/10/09 03:29:58;;;;;;;0.70;0.70;;;;;;;12.12;71.91;100084.25;5091224;28;20034;-76
2021/10/09 03:32:24;;;;;;;1.52;0.88;;;;;;;12.20;72.21;100100.06;5091303;28;20024;-76
2021/10/09 03:34:50;;;;;;;1.27;0.70;;;;;;;12.15;71.54;100099.78;5090909;28;20143;-76
2021/10/09 03:37:15;;;;;;;1.15;0.90;;;;;;;12.22;71.96;100103.38;5091178;28;20040;-76
2021/10/09 03:39:44;;;;;;;0.75;0.65;;;;;;;12.21;71.96;100102.56;5091264;28;20520;-76
2021/10/09 03:42:14;;;;;;;0.88;0.88;;;;;;;11.98;71.73;100070.75;5091267;28;20413;-76
2021/10/09 03:44:59;;;;;;;0.93;0.80;;;;;;;12.21;71.48;100118.44;5091267;28;20028;-76
2021/10/09 03:47:48;;;;;;;0.80;0.80;;;;;;;12.05;71.27;100095.53;5090834;28;20024;-76
2021/10/09 03:52:44;;;;;;;1.25;0.70;;;;;;;12.15;71.45;100120.94;5091270;28;20114;-76
2021/10/09 03:55:14;;;;;;;1.30;0.70;;;;;;;12.20;71.80;100126.56;5091059;28;20052;-77
2021/10/09 03:57:40;;;;;;;1.30;1.20;;;;;;;12.20;71.44;100119.44;5091625;28;20397;-76
2021/10/09 04:00:08;;;;;;;1.25;1.08;;;;;;;12.07;72.04;100098.81;5094909;28;20028;-75
2021/10/09 04:02:33;;;;;;;1.20;1.10;;;;;;;11.17;71.72;99957.38;5094487;28;20492;-76
2021/10/09 04:04:59;;;;;;;0.80;0.80;;;;;;;12.26;71.71;100126.69;5094692;28;20042;-77
2021/10/09 04:07:24;;;;;;;1.10;1.00;;;;;;;12.18;71.77;100117.97;5094815;28;20035;-76
2021/10/09 04:09:50;;;;;;;1.00;1.00;;;;;;;12.14;71.22;100117.47;5094607;28;20027;-76
2021/10/09 04:12:15;;;;;;;0.90;0.90;;;;;;;12.16;72.03;100115.50;5094796;28;20016;-76
2021/10/09 04:14:41;;;;;;;0.90;0.90;;;;;;;12.18;71.21;100126.72;5094484;28;20028;-76
2021/10/09 04:17:07;;;;;;;1.75;1.23;;;;;;;12.16;71.91;100125.25;5094496;28;20016;-76
2021/10/09 04:19:32;;;;;;;1.23;0.90;;;;;;;12.06;71.65;100128.94;5094538;28;20109;-76
2021/10/09 04:21:58;;;;;;;1.13;0.77;;;;;;;12.04;71.89;100133.59;5092891;28;20067;-76
2021/10/09 04:24:23;;;;;;;1.63;1.13;;;;;;;11.84;72.10;100095.28;5094517;28;20024;-81
2021/10/09 04:26:48;;;;;;;1.20;0.95;;;;;;;11.93;72.16;100096.91;5094786;28;20531;-81
2021/10/09 04:29:14;;;;;;;1.13;1.00;;;;;;;12.14;71.94;100125.44;5094213;28;20451;-81
2021/10/09 04:31:39;;;;;;;2.30;1.17;;;;;;;12.12;71.82;100118.66;5094214;28;20024;-80
2021/10/09 04:34:05;;;;;;;1.30;1.20;;;;;;;12.03;72.41;100108.13;5094049;28;20044;-81
2021/10/09 04:36:30;;;;;;;1.50;1.00;;;;;;;12.14;71.37;100128.06;5092779;28;20032;-80
2021/10/09 04:38:56;;;;;;;1.40;1.20;;;;;;;12.16;72.28;100143.78;5093991;28;20031;-81
2021/10/09 04:41:21;;;;;;;1.13;1.13;;;;;;;12.11;72.17;100144.31;5094047;28;20107;-81
2021/10/09 04:43:47;;;;;;;1.20;1.10;;;;;;;12.11;72.19;100138.19;5094125;28;20085;-81
2021/10/09 04:46:12;;;;;;;2.05;1.80;;;;;;;11.48;72.08;100041.19;5093772;28;20038;-81
2021/10/09 04:48:37;;;;;;;1.83;1.15;;;;;;;12.12;71.92;100123.94;5093898;28;20020;-81
2021/10/09 04:51:03;;;;;;;1.77;1.20;;;;;;;12.18;72.06;100129.38;5093770;28;20462;-81
2021/10/09 04:53:29;;;;;;;1.30;1.20;;;;;;;11.80;72.02;100072.81;5094001;28;20484;-80
2021/10/09 04:55:54;;;;;;;2.00;1.02;;;;;;;12.23;71.57;100140.25;5092464;28;20492;-81
2021/10/09 04:58:20;;;;;;;1.58;1.48;;;;;;;12.25;71.92;100148.03;5093397;28;20119;-81
2021/10/09 05:00:46;;;;;;;4.28;3.08;;;;;;;11.68;71.86;100056.47;5093556;28;20495;-81
2021/10/09 05:03:11;;;;;;;2.95;2.30;;;;;;;12.05;71.39;100119.34;5093414;28;20020;-80
2021/10/09 05:05:37;;;;;;;1.50;1.20;;;;;;;11.90;72.08;100089.31;5093688;28;20103;-81
2021/10/09 05:08:02;;;;;;;1.33;1.23;;;;;;;12.24;72.40;100149.03;5093693;28;20028;-81
2021/10/09 05:10:28;;;;;;;2.22;1.48;;;;;;;11.75;71.99;100077.75;5093047;28;20031;-81
2021/10/09 05:12:55;;;;;;;1.38;1.27;;;;;;;12.24;72.33;100159.63;5093302;28;20021;-81
2021/10/09 05:15:20;;;;;;;1.13;1.02;;;;;;;12.22;72.01;100159.78;5093415;28;20035;-81
2021/10/09 05:17:46;;;;;;;2.53;1.20;;;;;;;12.07;72.04;100143.00;5093611;28;20032;-81
2021/10/09 05:20:11;;;;;;;2.63;2.38;;;;;;;12.19;72.10;100157.50;5093475;28;20035;-81
2021/10/09 05:22:37;;;;;;;1.85;1.45;;;;;;;11.66;72.03;100065.56;5093255;28;20028;-81
2021/10/09 05:25:05;;;;;;;3.28;2.97;;;;;;;11.81;71.81;100105.38;5093576;28;20023;-76
2021/10/09 05:27:31;;;;;;;2.58;2.38;;;;;;;12.16;71.81;100167.59;5093239;28;20598;-76
2021/10/09 05:30:02;;;;;;;2.35;2.15;;;;;;;12.09;72.18;100173.59;5093382;28;20506;-77
2021/10/09 05:32:31;;;;;;;2.00;1.80;;;;;;;11.86;72.33;100135.63;5092966;28;20016;-76
2021/10/09 05:34:56;;;;;;;3.10;2.47;;;;;;;12.03;71.85;100176.09;5092714;28;20048;-76
2021/10/09 05:37:22;;;;;;;3.15;2.00;;;;;;;12.09;72.03;100191.28;5093020;28;20036;-76
2021/10/09 05:39:47;;;;;;;2.22;2.00;;;;;;;11.87;72.36;100163.72;5092879;28;20046;-77
2021/10/09 05:42:12;;;;;;;2.05;1.77;;;;;;;11.24;72.27;100063.25;5092869;28;20069;-76
2021/10/09 05:44:38;;;;;;;2.35;1.92;;;;;;;12.02;72.05;100222.09;5091680;28;20031;-76
2021/10/09 05:47:03;;;;;;;2.88;2.50;;;;;;;11.91;72.19;100169.53;5092852;28;20028;-76
2021/10/09 05:49:29;;;;;;;3.95;3.10;;;;;;;10.76;71.73;99983.09;5092782;28;20482;-77
2021/10/09 05:52:01;;;;;;;3.92;3.13;;;;;;;12.07;72.21;100195.94;5092741;28;20028;-78
2021/10/09 07:00:55;;;;;;;1.58;0.93;;;;;;;11.79;72.55;100259.00;5091572;28;20043;-81
2021/10/09 07:03:21;;;;;;;1.65;1.50;;;;;;;11.82;71.92;100261.31;5091388;28;20492;-81
2021/10/09 07:05:47;;;;;;;2.58;1.77;;;;;;;11.86;71.94;100291.72;5091253;28;20026;-82
2021/10/09 07:08:13;;;;;;;4.50;3.25;;;;;;;11.40;71.88;100198.88;5091353;28;20150;-81
2021/10/09 07:10:45;;;;;;;2.50;2.30;;;;;;;11.30;71.64;100166.50;5091402;28;20135;-81
2021/10/09 07:13:12;;;;;;;3.45;2.50;;;;;;;11.21;71.90;100156.91;5091388;28;20381;-81
2021/10/09 07:15:38;;;;;;;2.47;1.95;;;;;;;11.93;71.68;100271.56;5091373;28;20044;-81
2021/10/09 07:18:05;;;;;;;2.78;2.35;;;;;;;11.84;72.56;100250.56;5091521;28;20096;-81
2021/10/09 07:20:31;;;;;;;2.00;1.58;;;;;;;11.94;71.61;100262.63;5091289;28;20052;-81
2021/10/09 07:22:56;;;;;;;3.53;2.35;;;;;;;11.90;71.66;100263.97;5091314;28;20496;-81
2021/10/09 07:25:22;;;;;;;3.13;2.40;;;;;;;10.78;71.96;100084.09;5091358;28;20484;-76
2021/10/09 07:27:48;;;;;;;6.03;4.57;;;;;;;11.94;71.96;100277.69;5091342;28;20485;-76
2021/10/09 07:30:14;;;;;;;2.50;2.25;;;;;;;11.95;72.24;100274.88;5091322;28;20032;-76
2021/10/09 07:32:39;;;;;;;4.63;4.15;;;;;;;11.97;72.24;100283.47;5093602;28;20055;-76
2021/10/09 07:35:05;;;;;;;5.68;4.18;;;;;;;12.01;72.33;100282.13;5095203;28;20052;-76
2021/10/09 07:37:31;;;;;;;5.15;3.75;;;;;;;11.35;72.35;100171.28;5093921;28;20842;-76
2021/10/09 07:39:56;;;;;;;3.67;3.30;;;;;;;12.07;72.31;100281.47;5095083;28;20035;-76
2021/10/09 07:42:21;;;;;;;4.53;4.03;;;;;;;11.85;71.56;100236.34;5095085;28;20104;-77
2021/10/09 07:44:49;;;;;;;8.43;6.95;;;;;;;12.17;71.70;100288.38;5095079;28;20028;-76
2021/10/09 07:47:15;;;;;;;3.72;2.40;;;;;;;12.21;71.77;100282.56;5093858;28;20078;-76
2021/10/09 07:49:41;;;;;;;3.33;2.10;;;;;;;12.22;71.97;100283.41;5095243;28;20028;-76
2021/10/09 07:52:07;;;;;;;2.92;2.65;;;;;;;12.23;72.12;100293.81;5095013;28;20027;-76
2021/10/09 07:54:33;;;;;;;2.25;1.95;;;;;;;12.25;71.42;100291.00;5095241;28;20035;-76
2021/10/09 07:56:58;;;;;;;4.53;2.30;;;;;;;12.26;71.90;100295.31;5094827;28;20028;-76
2021/10/09 07:59:23;;;;;;;2.63;1.92;;;;;;;11.54;71.71;100170.09;5094681;28;20024;-76
2021/10/09 08:01:49;;;;;;;2.17;1.77;;;;;;;12.07;71.26;100255.00;5094935;28;20028;-76
2021/10/09 08:04:16;;;;;;;2.42;1.75;;;;;;;12.24;71.85;100289.34;5094648;28;20149;-76
2021/10/09 08:06:42;;;;;;;3.30;2.25;;;;;;;11.94;71.33;100233.53;5094829;28;20028;-76
2021/10/09 08:09:07;;;;;;;3.17;2.60;;;;;;;12.20;71.11;100282.75;5095087;28;20032;-76
2021/10/09 08:11:32;;;;;;;4.65;3.40;;;;;;;12.31;71.59;100285.84;5094570;28;20042;-76
2021/10/09 08:13:58;;;;;;;2.53;1.83;;;;;;;11.58;70.96;100171.41;5094359;28;20055;-76
2021/10/09 08:16:24;;;;;;;4.18;2.58;;;;;;;12.08;71.77;100248.69;5094233;28;20078;-76
2021/10/09 08:18:49;;;;;;;2.10;1.40;;;;;;;12.40;71.41;100286.66;5094206;28;20020;-76
2021/10/09 08:21:15;;;;;;;2.78;2.28;;;;;;;12.24;71.44;100254.94;5094150;28;20086;-76
2021/10/09 08:39:45;;;;;;;3.47;2.58;;;;;;;11.74;71.21;100197.81;5094428;28;20039;-81
2021/10/09 08:42:11;;;;;;;3.00;2.40;;;;;;;12.11;71.82;100254.66;5094025;28;20481;-81
2021/10/09 08:44:41;;;;;;;2.50;2.30;;;;;;;12.34;71.18;100298.75;5091766;28;20420;-81
2021/10/09 08:47:10;;;;;;;1.98;1.77;;;;;;;12.17;71.55;100259.25;5093859;28;20020;-82
2021/10/09 08:49:36;;;;;;;2.22;1.95;;;;;;;12.05;71.79;100267.56;5093741;28;20028;-81
2021/10/09 08:52:02;;;;;;;2.03;1.83;;;;;;;12.03;71.65;100269.56;5094037;28;20024;-81
2021/10/09 08:54:43;;;;;;;1.70;1.50;;;;;;;12.20;71.67;100293.34;5093919;28;20028;-81
2021/10/09 08:57:21;;;;;;;2.35;1.73;;;;;;;12.18;72.33;100293.50;5093887;28;20054;-81
2021/10/09 08:59:58;;;;;;;3.33;1.45;;;;;;;12.21;72.02;100298.47;5093746;28;20028;-81
2021/10/09 09:02:31;;;;;;;3.03;2.08;;;;;;;12.16;72.08;100297.31;5093645;28;20028;-81
2021/10/09 09:37:19;;;;;;;9.00;6.45;;;;;;;12.20;71.92;100298.63;5093005;28;20028;-80
2021/10/09 09:39:45;;;;;;;6.95;5.63;;;;;;;11.75;71.97;100244.44;5092563;28;20024;-81
2021/10/09 09:42:11;;;;;;;4.15;3.50;;;;;;;12.28;71.72;100315.31;5091619;28;20480;-81
2021/10/09 09:44:53;;;;;;;5.85;4.57;;;;;;;12.26;72.14;100316.47;5092934;28;20020;-81
2021/10/09 09:47:18;;;;;;;4.50;4.05;;;;;;;11.25;71.93;100146.84;5092834;28;20024;-81
2021/10/09 09:49:45;;;;;;;4.82;3.78;;;;;;;12.10;72.26;100282.94;5092804;28;20411;-80
2021/10/09 09:52:11;;;;;;;7.40;5.80;;;;;;;11.78;71.68;100237.00;5091451;28;20024;-81
2021/10/09 09:54:37;;;;;;;8.32;6.43;;;;;;;12.36;71.81;100330.34;5091473;28;20181;-80
2021/10/09 09:57:03;;;;;;;5.15;4.65;;;;;;;12.34;71.50;100319.94;5091915;28;20034;-81
2021/10/09 09:59:32;;;;;;;5.80;5.20;;;;;;;11.80;71.96;100241.31;5091379;28;20479;-81
2021/10/09 10:02:03;;;;;;;5.32;4.82;;;;;;;12.22;71.85;100316.00;5092397;28;20032;-80
2021/10/09 10:04:30;;;;;;;4.35;3.83;;;;;;;12.30;72.08;100308.03;5092198;28;20540;-81
2021/10/09 10:06:58;;;;;;;5.32;3.63;;;;;;;12.23;71.51;100287.69;5092311;28;20480;-81
2021/10/09 10:09:24;;;;;;;4.47;3.30;;;;;;;12.12;71.52;100269.53;5092328;28;20107;-80
2021/10/09 10:11:50;;;;;;;4.03;3.63;;;;;;;12.44;71.52;100305.66;5092195;28;20051;-81
2021/10/09 10:14:15;;;;;;;12.02;8.82;;;;;;;12.29;72.03;100282.53;5092199;28;20047;-81
2021/10/09 10:16:50;;;;;;;14.10;8.93;;;;;;;12.34;71.29;100282.03;5129423;27;20463;-81
2021/10/09 10:19:15;;;;;;;14.43;9.82;;;;;;;12.39;71.30;100285.00;5108943;28;20032;-82
2021/10/09 10:21:41;;;;;;;10.27;7.85;;;;;;;12.53;71.34;100307.28;5108739;28;20107;-81
2021/10/09 10:24:11;;;;;;;11.65;8.45;;;;;;;12.24;71.92;100260.22;5108757;28;20028;-76
2021/10/09 10:26:37;;;;;;;9.23;7.80;;;;;;;12.52;71.69;100303.81;5108791;28;20456;-76
2021/10/09 10:29:02;;;;;;;8.88;6.50;;;;;;;12.57;71.83;100303.28;5108701;28;20077;-76
2021/10/09 10:31:29;;;;;;;6.47;5.43;;;;;;;12.51;70.96;100296.88;5108715;28;20016;-76
2021/10/09 10:34:23;;;;;;;6.70;4.47;;;;;;;12.54;71.61;100308.94;5108584;28;20012;-76
2021/10/09 10:36:50;;;;;;;6.93;5.97;;;;;;;12.52;71.37;100313.59;5108793;28;20507;-76
2021/10/09 10:39:20;;;;;;;4.07;3.60;;;;;;;12.53;71.52;100296.69;5108426;28;20027;-76
2021/10/09 10:42:00;;;;;;;8.52;7.55;;;;;;;12.54;71.64;100301.81;5108546;28;20034;-76
2021/10/09 10:47:42;;;;;;;3.65;3.35;;;;;;;12.35;71.41;100273.09;5108721;28;20024;-77
2021/10/09 10:50:27;;;;;;;4.90;3.72;;;;;;;12.38;71.58;100278.03;5108481;28;20412;-76
2021/10/09 10:52:59;;;;;;;7.50;5.50;;;;;;;12.56;71.34;100299.81;5108418;28;20020;-76
2021/10/09 10:55:24;;;;;;;7.55;5.88;;;;;;;12.58;71.13;100305.78;5108236;28;20027;-76
2021/10/09 10:58:19;;;;;;;7.05;4.85;;;;;;;12.59;71.59;100296.81;5108290;28;20027;-76
2021/10/09 11:01:19;;;;;;;6.30;5.35;;;;;;;12.45;71.98;100273.72;5107976;28;20012;-76
2021/10/09 11:03:46;;;;;;;4.97;4.47;;;;;;;12.59;70.92;100288.88;5077240;28;20039;-76
2021/10/09 11:06:13;;;;;;;5.78;4.82;;;;;;;12.62;71.39;100285.06;5069681;28;20028;-76
2021/10/09 11:08:42;;;;;;;5.65;4.35;;;;;;;12.26;71.04;100248.47;5087846;28;20028;-76
2021/10/09 11:11:07;;;;;;;7.15;4.53;;;;;;;12.52;70.93;100290.56;5069558;28;20024;-76
2021/10/09 11:13:33;;;;;;;5.38;4.00;;;;;;;12.62;71.50;100303.59;5087629;28;20027;-76
2021/10/09 11:15:59;;;;;;;6.78;5.57;;;;;;;12.28;71.55;100241.19;5079155;28;20398;-76
2021/10/09 11:18:24;;;;;;;5.72;4.78;;;;;;;12.54;71.35;100274.50;5087872;28;20051;-76
2021/10/09 11:20:58;;;;;;;5.57;4.15;;;;;;;12.69;70.90;100300.13;5087731;28;20020;-76
2021/10/09 11:23:24;;;;;;;3.58;3.28;;;;;;;12.72;71.25;100298.94;5087707;28;20492;-76
2021/10/09 11:25:49;;;;;;;3.83;3.28;;;;;;;12.71;71.12;100290.19;5087545;28;20192;-76
2021/10/09 11:28:24;;;;;;;2.95;2.75;;;;;;;12.68;71.25;100289.69;5073846;28;20021;-76
2021/10/09 11:30:49;;;;;;;2.67;2.30;;;;;;;12.41;70.94;100257.34;5074031;28;20032;-76
2021/10/09 11:33:22;;;;;;;2.90;2.60;;;;;;;12.35;71.31;100259.84;5074028;28;20405;-76
2021/10/09 11:35:47;;;;;;;5.68;5.10;;;;;;;12.24;71.59;100255.75;5073708;28;20516;-75
2021/10/09 11:38:25;;;;;;;5.25;4.30;;;;;;;12.54;71.31;100298.34;5073893;28;20107;-76
2021/10/09 11:46:02;;;;;;;5.70;4.72;;;;;;;12.44;70.99;100261.47;5073607;28;20119;-76
2021/10/09 11:54:05;;;;;;;6.25;5.00;;;;;;;12.57;71.40;100274.16;5074108;28;20086;-76
2021/10/09 11:56:40;;;;;;;4.80;4.30;;;;;;;12.79;71.14;100304.38;5073562;28;20024;-76
2021/10/09 11:59:06;;;;;;;6.13;5.22;;;;;;;12.75;71.27;100290.66;5073369;28;20024;-76
2021/10/09 12:01:40;;;;;;;5.75;5.18;;;;;;;12.75;71.53;100295.13;5073376;28;20048;-76
2021/10/09 12:04:23;;;;;;;4.90;4.25;;;;;;;12.77;71.35;100298.44;5073231;28;20024;-76
2021/10/09 12:06:57;;;;;;;3.85;2.83;;;;;;;12.54;70.85;100255.97;5073220;28;20027;-76
2021/10/09 12:09:45;;;;;;;4.30;3.55;;;;;;;12.82;70.53;100301.38;5073152;28;20020;-76
2021/10/09 12:12:19;;;;;;;4.78;3.22;;;;;;;12.84;70.61;100296.72;5073340;28;20405;-76
2021/10/09 12:14:46;;;;;;;3.22;2.70;;;;;;;12.83;70.52;100293.25;5070096;28;20118;-75
2021/10/09 12:17:11;;;;;;;5.60;4.35;;;;;;;12.63;70.50;100273.47;5053006;28;20031;-75
2021/10/09 12:19:37;;;;;;;6.75;5.30;;;;;;;12.80;71.02;100293.59;5052785;28;20122;-75
2021/10/09 12:22:04;;;;;;;7.90;6.35;;;;;;;12.79;70.76;100293.78;5052724;28;20037;-75
2021/10/09 12:24:32;;;;;;;9.25;7.75;;;;;;;12.81;70.88;100283.81;5052776;28;20453;-75
2021/10/09 12:27:13;;;;;;;7.88;6.70;;;;;;;12.66;71.48;100273.16;5052847;28;20104;-75
2021/10/09 12:29:54;;;;;;;9.07;7.55;;;;;;;12.84;71.14;100283.47;5051408;28;20378;-75
2021/10/09 12:32:20;;;;;;;6.20;5.30;;;;;;;12.71;71.02;100262.84;5052573;28;20025;-76
2021/10/09 12:34:46;;;;;;;7.60;5.20;;;;;;;12.86;70.90;100277.00;5052640;28;20033;-76
2021/10/09 12:37:24;;;;;;;4.68;4.18;;;;;;;12.91;70.73;100273.84;5052703;28;20143;-75
2021/10/09 12:40:10;;;;;;;3.95;2.58;;;;;;;12.89;70.86;100275.81;5051644;28;20025;-76
2021/10/09 12:42:36;;;;;;;4.85;3.42;;;;;;;12.89;70.57;100287.25;5034960;28;20104;-75
2021/10/09 12:45:04;;;;;;;2.15;1.80;;;;;;;12.88;70.35;100290.91;5052573;28;20024;-75
2021/10/09 12:47:30;;;;;;;2.08;1.88;;;;;;;12.86;71.11;100284.97;5052419;28;20021;-75
2021/10/09 12:49:56;;;;;;;4.25;2.00;;;;;;;12.60;70.62;100256.09;5052937;28;20033;-75
2021/10/09 12:52:21;;;;;;;5.50;4.63;;;;;;;12.83;70.71;100295.91;5052465;28;20016;-75
2021/10/09 12:54:47;;;;;;;8.07;6.18;;;;;;;12.81;71.03;100303.19;5052355;28;20029;-76
2021/10/09 12:57:12;;;;;;;5.15;4.30;;;;;;;12.52;70.88;100248.19;5052324;28;20024;-75
2021/10/09 12:59:38;;;;;;;5.57;4.45;;;;;;;12.79;70.82;100285.81;5051884;28;20493;-76
2021/10/09 13:02:03;;;;;;;4.85;4.35;;;;;;;12.77;71.03;100282.53;5052157;28;20013;-75
2021/10/09 13:04:29;;;;;;;5.00;4.47;;;;;;;12.83;70.77;100287.97;5052206;28;20017;-75
2021/10/09 13:06:55;;;;;;;5.57;4.97;;;;;;;12.81;70.80;100287.31;5052232;28;20082;-75
2021/10/09 13:09:20;;;;;;;6.78;5.15;;;;;;;12.81;70.86;100297.91;5052104;28;20382;-75
2021/10/09 13:12:09;;;;;;;4.78;4.03;;;;;;;12.80;70.77;100279.53;5052257;28;20024;-76
2021/10/09 13:14:32;;;;;;;4.10;3.70;;;;;;;12.79;70.63;100276.06;5051150;28;20128;-75
2021/10/09 13:16:58;;;;;;;4.32;3.92;;;;;;;12.37;70.74;100240.16;5051930;28;20036;-75
2021/10/09 13:19:23;;;;;;;3.88;3.45;;;;;;;12.72;71.55;100281.22;5051912;28;20025;-75
2021/10/09 13:21:49;;;;;;;5.05;4.20;;;;;;;12.67;71.44;100280.91;5051857;28;20505;-75
2021/10/09 13:24:14;;;;;;;8.50;7.15;;;;;;;12.56;71.30;100249.50;5051718;28;20096;-75
2021/10/09 13:26:40;;;;;;;4.68;4.22;;;;;;;12.75;71.27;100273.94;5051671;28;20028;-76
2021/10/09 13:29:06;;;;;;;5.65;4.72;;;;;;;12.52;71.62;100237.59;5051720;28;20405;-75
2021/10/09 13:31:32;;;;;;;6.07;4.70;;;;;;;12.79;71.42;100278.69;5051758;28;20048;-75
2021/10/09 13:33:57;;;;;;;5.30;4.30;;;;;;;12.79;70.99;100278.69;5051609;28;20491;-76
2021/10/09 13:36:24;;;;;;;6.40;5.80;;;;;;;12.53;71.17;100252.47;5051642;28;20032;-75
2021/10/09 13:38:50;;;;;;;7.22;5.82;;;;;;;12.70;71.25;100280.56;5051657;28;20116;-76
2021/10/09 13:41:16;;;;;;;3.50;3.20;;;;;;;12.70;71.38;100282.41;5051454;28;20059;-75
2021/10/09 13:43:41;;;;;;;4.93;4.43;;;;;;;12.36;71.45;100235.84;5051378;28;20082;-76
2021/10/09 13:46:07;;;;;;;8.98;6.43;;;;;;;12.71;71.52;100281.41;5051193;28;20017;-76
2021/10/09 13:48:33;;;;;;;7.15;5.82;;;;;;;12.39;71.85;100216.97;5033608;28;20070;-75
2021/10/09 13:50:58;;;;;;;6.78;6.03;;;;;;;12.61;71.87;100248.97;5051077;28;20025;-76